Time;durP1;ratioP1;P1;durP2;ratioP2;P2;SDS_P1;SDS_P2;PMS_P1;PMS_P2;Temp;Humidity;BMP_temperature;BMP_pressure;BME280_temperature;BME280_humidity;BME280_pressure;Samples;Min_cycle;Max_cycle;Signal;HPM_P1;HPM_P2
2021/11/07 06:21:11;;;;;;;5.75;1.90;;;;;;;5.79;67.38;99282.50;5971271;23;20333;-89
2021/11/07 06:23:39;;;;;;;3.92;1.38;;;;;;;5.74;66.92;99279.84;4870799;29;20061;-90
2021/11/07 06:26:06;;;;;;;2.22;1.27;;;;;;;5.76;66.91;99273.03;4886718;29;20069;-88
2021/11/07 06:28:34;;;;;;;8.00;1.83;;;;;;;5.83;67.42;99292.53;4861112;29;20046;-88
2021/11/07 06:31:04;;;;;;;;;;;;;;;5.94;67.74;99285.13;4843451;29;20468;-88
2021/11/07 06:33:31;;;;;;;7.03;1.90;;;;;;;5.83;68.00;99278.97;4861625;29;20173;-87
2021/11/07 06:35:57;;;;;;;6.60;1.90;;;;;;;5.82;68.54;99271.09;4869829;29;20078;-86
2021/11/07 06:38:23;;;;;;;11.02;2.70;;;;;;;6.07;67.69;99303.50;4859083;29;20042;-88
2021/11/07 06:40:53;;;;;;;6.15;1.83;;;;;;;5.96;66.47;99272.13;4859381;29;20061;-87
2021/11/07 06:43:20;;;;;;;8.07;2.38;;;;;;;5.99;66.19;99274.22;4860619;29;20465;-85
2021/11/07 06:45:46;;;;;;;10.23;2.10;;;;;;;6.10;65.17;99293.97;4858486;29;20102;-86
2021/11/07 06:48:16;;;;;;;5.50;2.00;;;;;;;5.93;64.49;99266.41;4859019;29;20355;-88
2021/11/07 06:50:42;;;;;;;8.77;1.98;;;;;;;6.14;63.87;99296.94;4858799;29;20060;-88
2021/11/07 06:53:11;;;;;;;8.52;1.80;;;;;;;6.23;64.89;99303.38;4858589;29;20190;-85
2021/11/07 06:55:37;;;;;;;6.65;1.98;;;;;;;6.13;64.55;99271.69;4887693;29;20041;-87
2021/11/07 06:58:04;;;;;;;10.80;2.33;;;;;;;6.20;65.07;99296.59;4874312;29;20590;-87
2021/11/07 07:00:30;;;;;;;8.15;3.58;;;;;;;6.38;64.60;99314.09;4853493;29;20056;-87
2021/11/07 07:02:57;;;;;;;11.38;3.15;;;;;;;6.07;63.99;99260.06;4846831;29;20508;-87
2021/11/07 07:05:24;;;;;;;8.93;2.17;;;;;;;6.31;64.71;99321.75;4846479;29;20081;-87
2021/11/07 07:07:58;;;;;;;9.18;1.92;;;;;;;6.32;64.19;99335.06;4843617;29;20475;-90
2021/11/07 07:10:29;;;;;;;8.45;2.03;;;;;;;6.29;64.21;99321.22;4845380;29;20056;-86
2021/11/07 07:13:02;;;;;;;5.40;2.08;;;;;;;6.26;64.37;99314.47;4843503;29;20140;-87
2021/11/07 07:15:54;;;;;;;23.67;7.13;;;;;;;6.44;64.00;99320.28;4845952;29;20182;-85
2021/11/07 07:18:33;;;;;;;14.82;4.72;;;;;;;6.54;63.34;99314.75;4851331;29;20049;-85
2021/11/07 07:28:41;;;;;;;7.80;2.90;;;;;;;6.54;61.14;99303.91;4848921;29;20052;-83
2021/11/07 07:34:01;;;;;;;6.00;2.63;;;;;;;6.73;60.33;99337.41;4863820;29;20058;-88
2021/11/07 07:36:30;;;;;;;7.65;1.92;;;;;;;6.52;60.20;99333.25;4861353;29;20620;-87
2021/11/07 07:38:57;;;;;;;4.93;1.88;;;;;;;6.41;59.54;99315.44;4862183;29;20055;-88
2021/11/07 07:41:24;;;;;;;9.20;1.80;;;;;;;6.17;59.21;99291.75;4868514;29;20041;-88
2021/11/07 07:43:51;;;;;;;6.65;2.15;;;;;;;6.48;60.44;99326.75;4859650;29;20041;-85
2021/11/07 07:46:21;;;;;;;11.95;2.25;;;;;;;6.56;60.77;99345.97;4865496;29;20041;-84
2021/11/07 07:48:48;;;;;;;4.57;1.90;;;;;;;6.33;59.30;99309.53;4872095;29;20045;-83
2021/11/07 07:51:18;;;;;;;4.22;2.08;;;;;;;6.50;59.89;99338.16;4848178;29;20049;-82
2021/11/07 07:53:45;;;;;;;6.22;2.25;;;;;;;6.34;60.76;99322.00;4866480;29;20548;-83
2021/11/07 07:56:14;;;;;;;6.65;2.25;;;;;;;6.33;59.96;99327.72;4852347;29;20042;-83
2021/11/07 07:58:40;;;;;;;9.88;3.03;;;;;;;6.30;60.47;99333.72;4856199;29;20049;-85
2021/11/07 08:01:09;;;;;;;5.72;2.28;;;;;;;6.39;59.50;99326.59;4849296;29;20128;-85
2021/11/07 08:03:35;;;;;;;8.30;2.20;;;;;;;6.34;59.71;99313.03;4847000;29;20037;-84
2021/11/07 08:06:02;;;;;;;5.40;1.92;;;;;;;6.58;59.70;99340.25;4848025;29;20574;-83
2021/11/07 08:08:28;;;;;;;15.10;3.27;;;;;;;6.44;59.90;99320.28;4849459;29;20046;-83
2021/11/07 08:10:54;;;;;;;7.63;3.00;;;;;;;6.42;58.47;99326.00;4859055;29;20506;-82
2021/11/07 08:13:20;;;;;;;7.80;2.30;;;;;;;6.47;58.95;99347.69;4856921;29;20080;-83
2021/11/07 08:15:47;;;;;;;9.48;2.30;;;;;;;6.20;59.12;99317.50;4854545;29;20084;-85
2021/11/07 08:18:14;;;;;;;8.23;2.28;;;;;;;6.35;58.67;99356.19;4857008;29;20053;-85
2021/11/07 08:20:45;;;;;;;7.97;1.95;;;;;;;6.26;58.30;99321.81;4872624;29;20073;-82
2021/11/07 08:23:11;;;;;;;17.08;4.30;;;;;;;6.44;59.00;99361.03;4871839;29;20914;-83
2021/11/07 08:25:41;;;;;;;6.45;1.75;;;;;;;6.33;59.00;99347.53;4856494;29;20041;-83
2021/11/07 08:28:11;;;;;;;3.17;1.58;;;;;;;6.44;58.44;99366.44;4853424;29;20042;-86
2021/11/07 08:30:42;;;;;;;10.80;1.77;;;;;;;6.48;59.65;99365.59;4841261;29;20558;-82
2021/11/07 08:33:09;;;;;;;19.35;2.13;;;;;;;6.48;58.95;99373.72;4853896;29;20422;-78
2021/11/07 08:35:41;;;;;;;;;;;;;;;6.50;58.82;99371.56;4869871;29;20034;-80
2021/11/07 08:38:20;;;;;;;29.85;10.13;;;;;;;6.61;60.01;99366.84;4859460;29;20396;-84
2021/11/07 08:40:51;;;;;;;47.83;13.00;;;;;;;6.37;59.49;99350.47;4859824;29;20046;-81
2021/11/07 09:02:56;;;;;;;24.85;5.65;;;;;;;6.80;59.33;99340.56;4851831;29;20041;-83
2021/11/07 09:05:46;;;;;;;9.02;2.95;;;;;;;6.97;58.68;99356.44;4866649;29;20049;-81
2021/11/07 09:08:16;;;;;;;19.73;6.18;;;;;;;7.12;59.35;99358.19;4844209;29;20050;-81
2021/11/07 09:10:44;;;;;;;9.68;3.72;;;;;;;7.26;58.03;99353.66;4851773;29;20069;-85
2021/11/07 09:13:12;;;;;;;12.60;2.80;;;;;;;7.37;57.90;99358.97;4858704;29;20132;-82
2021/11/07 09:15:41;;;;;;;8.80;2.90;;;;;;;7.37;56.79;99348.09;4868177;29;20041;-84
2021/11/07 09:18:11;;;;;;;10.05;2.83;;;;;;;7.32;57.36;99343.56;4847704;29;20045;-84
2021/11/07 09:20:50;;;;;;;10.55;2.33;;;;;;;7.03;56.93;99324.59;4850791;29;20714;-82
2021/11/07 09:23:28;;;;;;;16.33;2.25;;;;;;;6.92;56.88;99320.34;4865398;29;20064;-81
2021/11/07 09:28:28;;;;;;;12.23;2.50;;;;;;;7.30;58.37;99327.50;4848298;29;20053;-82
2021/11/07 09:31:10;;;;;;;12.00;3.00;;;;;;;7.16;57.75;99307.56;4845994;29;20042;-81
2021/11/07 09:36:27;;;;;;;10.80;3.03;;;;;;;7.47;56.79;99331.66;4846862;29;20053;-81
2021/11/07 09:44:16;;;;;;;63.25;10.88;;;;;;;7.28;56.17;99328.91;4860560;29;20079;-83
2021/11/07 09:46:47;;;;;;;43.28;8.77;;;;;;;7.04;56.07;99291.66;4859400;29;20084;-83
2021/11/07 09:49:22;;;;;;;23.65;5.50;;;;;;;7.18;57.04;99304.56;4873358;29;20041;-83
2021/11/07 09:52:00;;;;;;;13.52;4.03;;;;;;;7.29;57.39;99325.91;4860268;29;20090;-81
2021/11/07 09:54:29;;;;;;;17.27;3.20;;;;;;;7.18;58.16;99310.78;4842034;29;20045;-83
2021/11/07 09:56:57;;;;;;;18.30;3.20;;;;;;;7.24;57.62;99327.88;4844839;29;20423;-82
2021/11/07 09:59:25;;;;;;;19.73;3.88;;;;;;;7.22;58.00;99320.00;4865634;29;20074;-82
2021/11/07 10:02:00;;;;;;;25.83;7.05;;;;;;;7.25;58.15;99307.72;4866483;29;20515;-82
2021/11/07 10:04:32;;;;;;;26.58;7.97;;;;;;;7.51;57.61;99327.25;4867462;29;20105;-81
2021/11/07 10:07:18;;;;;;;9.90;2.97;;;;;;;7.54;57.47;99342.97;4866561;29;20053;-81
2021/11/07 10:10:00;;;;;;;11.38;2.67;;;;;;;7.44;57.05;99343.13;4859022;29;20399;-85
2021/11/07 10:12:48;;;;;;;8.95;3.90;;;;;;;7.30;58.03;99315.81;4860303;29;20164;-83
2021/11/07 10:15:29;;;;;;;14.82;7.03;;;;;;;7.53;57.27;99346.81;4861293;29;20418;-81
2021/11/07 10:18:15;;;;;;;6.95;2.25;;;;;;;7.56;56.53;99329.91;4860891;29;20076;-81
2021/11/07 10:20:56;;;;;;;9.02;2.97;;;;;;;7.41;57.15;99309.16;4860051;29;20037;-81
2021/11/07 10:23:39;;;;;;;9.80;3.38;;;;;;;7.17;56.87;99275.75;4859838;29;20053;-82
2021/11/07 10:26:28;;;;;;;13.70;2.80;;;;;;;7.53;56.58;99333.22;4860110;29;20068;-83
2021/11/07 10:28:59;;;;;;;;;;;;;;;7.62;56.86;99327.94;4858483;29;20049;-85
2021/11/07 10:31:33;;;;;;;13.57;3.28;;;;;;;7.66;56.33;99326.25;4859564;29;20407;-82
2021/11/07 10:45:45;;;;;;;21.42;3.58;;;;;;;7.78;55.28;99326.59;4858484;29;20525;-80
2021/11/07 10:52:05;;;;;;;20.73;5.00;;;;;;;7.81;55.35;99330.66;4859726;29;20037;-81
2021/11/07 10:53:31;;;;;;;8.90;3.28;;;;;;;7.81;54.77;99325.22;4858817;29;20058;-78
2021/11/07 10:56:03;;;;;;;11.88;3.75;;;;;;;7.84;54.89;99321.91;4848091;29;20041;-79
2021/11/07 10:58:33;;;;;;;12.65;4.50;;;;;;;7.79;54.43;99305.66;4851508;29;20049;-75
2021/11/07 11:01:02;;;;;;;10.60;2.72;;;;;;;7.90;53.63;99323.44;4849041;29;20045;-75
2021/11/07 11:03:28;;;;;;;8.35;2.92;;;;;;;7.87;53.91;99305.78;4858574;29;20093;-75
2021/11/07 11:08:35;;;;;;;10.25;2.53;;;;;;;7.94;53.76;99299.97;4858690;29;20397;-75
2021/11/07 11:38:02;;;;;;;11.38;2.63;;;;;;;7.89;53.70;99291.91;4833055;29;19924;-82
2021/11/07 11:40:49;;;;;;;20.60;4.60;;;;;;;7.82;54.47;99280.59;4863597;29;20052;-83
2021/11/07 11:43:20;;;;;;;12.60;3.88;;;;;;;7.68;54.81;99275.03;4854326;29;20518;-81
2021/11/07 11:51:58;;;;;;;11.82;3.65;;;;;;;7.62;55.21;99276.25;4869802;29;20037;-84
2021/11/07 12:00:01;;;;;;;13.00;3.88;;;;;;;7.50;55.47;99254.91;4860365;29;20074;-84
2021/11/07 12:08:12;;;;;;;15.02;4.30;;;;;;;7.98;55.53;99274.59;4860856;29;20389;-83
2021/11/07 12:10:46;;;;;;;8.52;3.50;;;;;;;8.10;55.19;99270.59;4863427;29;20045;-80
2021/11/07 12:16:14;;;;;;;20.08;6.93;;;;;;;8.27;54.47;99267.31;4862336;29;20432;-80
2021/11/07 12:19:04;;;;;;;20.13;5.20;;;;;;;8.36;54.08;99260.09;4861019;29;20471;-85
2021/11/07 12:21:55;;;;;;;17.30;6.55;;;;;;;8.52;54.38;99252.47;4861705;29;20049;-78
2021/11/07 12:24:58;;;;;;;27.63;8.10;;;;;;;8.47;53.82;99251.44;4844257;29;20062;-78
2021/11/07 12:27:48;;;;;;;24.88;6.85;;;;;;;8.53;53.99;99245.91;4862822;29;20392;-78
2021/11/07 12:30:28;;;;;;;18.25;4.88;;;;;;;8.60;52.97;99241.69;4861649;29;20037;-78
2021/11/07 12:33:19;;;;;;;20.42;5.95;;;;;;;8.67;52.38;99250.25;4861246;29;20045;-81
2021/11/07 12:40:27;;;;;;;23.75;7.90;;;;;;;8.59;53.01;99229.16;4861763;29;20050;-78
2021/11/07 12:41:31;;;;;;;36.25;10.50;;;;;;;8.83;54.27;99248.03;4860139;29;20044;-79
2021/11/07 12:44:04;;;;;;;15.85;5.22;;;;;;;8.82;50.97;99245.63;4861369;29;20101;-77
2021/11/07 12:49:08;;;;;;;18.48;6.07;;;;;;;8.81;52.61;99241.31;4851597;29;20046;-79
2021/11/07 12:51:41;;;;;;;12.90;4.60;;;;;;;8.81;51.60;99239.38;4856957;29;20091;-79
2021/11/07 12:54:30;;;;;;;14.13;4.85;;;;;;;8.88;53.03;99233.53;4858488;29;20053;-80
2021/11/07 12:57:06;;;;;;;17.75;5.63;;;;;;;8.86;51.40;99233.00;4860776;29;20049;-79
2021/11/07 12:59:50;;;;;;;28.00;6.75;;;;;;;8.79;52.06;99218.97;4860912;29;20128;-77
2021/11/07 13:02:24;;;;;;;21.75;5.72;;;;;;;8.79;52.66;99238.06;4859797;29;20498;-76
2021/11/07 13:05:07;;;;;;;23.20;5.80;;;;;;;8.72;53.72;99232.22;4853555;29;20052;-76
2021/11/07 13:10:28;;;;;;;9.70;3.30;;;;;;;8.49;53.52;99232.09;4845116;29;20042;-79
2021/11/07 13:13:02;;;;;;;17.48;4.55;;;;;;;8.66;53.19;99223.31;4858311;29;20056;-79
2021/11/07 13:15:37;;;;;;;16.73;4.40;;;;;;;8.55;53.50;99228.16;4860738;29;20052;-84
2021/11/07 13:21:41;;;;;;;18.05;5.03;;;;;;;8.37;54.98;99213.47;4860008;29;20579;-79
2021/11/07 13:30:03;;;;;;;30.17;5.18;;;;;;;8.30;54.81;99218.50;4860647;29;20045;-76
2021/11/07 13:32:31;;;;;;;9.73;4.57;;;;;;;8.14;55.02;99225.31;4860268;29;20052;-89
2021/11/07 13:35:06;;;;;;;20.67;4.43;;;;;;;7.95;55.48;99212.59;4860513;29;20057;-84
2021/11/07 13:37:49;;;;;;;15.13;4.13;;;;;;;7.87;55.60;99193.41;4858774;29;20048;-77
2021/11/07 13:40:27;;;;;;;11.65;4.63;;;;;;;7.95;56.01;99209.06;4859059;29;20056;-79
2021/11/07 13:43:02;;;;;;;19.20;6.63;;;;;;;7.77;56.47;99197.09;4858563;29;20478;-77
2021/11/07 13:45:31;;;;;;;18.40;4.90;;;;;;;7.76;56.60;99206.38;4844498;29;20045;-78
2021/11/07 13:48:00;;;;;;;17.42;5.65;;;;;;;7.74;57.13;99205.84;4856291;29;20049;-83
2021/11/07 13:50:34;;;;;;;15.65;4.95;;;;;;;7.67;57.67;99198.06;4842591;29;20136;-77
2021/11/07 13:53:02;;;;;;;11.02;3.85;;;;;;;7.67;57.68;99200.78;4872635;29;20080;-79
2021/11/07 13:55:32;;;;;;;12.88;4.50;;;;;;;7.69;58.09;99195.88;4859653;29;20053;-89
2021/11/07 13:58:13;;;;;;;15.20;3.97;;;;;;;7.56;58.28;99183.03;4860784;29;20525;-89
2021/11/07 14:00:41;;;;;;;26.75;6.22;;;;;;;7.49;58.50;99179.88;4842231;29;20054;-89
2021/11/07 14:03:15;;;;;;;11.27;3.70;;;;;;;7.54;58.57;99191.47;4842900;29;20038;-84
2021/11/07 14:06:11;;;;;;;13.60;4.47;;;;;;;7.60;58.99;99192.19;4859680;29;20086;-78
2021/11/07 14:09:03;;;;;;;16.45;4.60;;;;;;;7.53;59.07;99184.41;4859773;29;20412;-87
2021/11/07 14:11:33;;;;;;;12.73;3.70;;;;;;;7.59;59.04;99196.03;4861595;29;20049;-82
2021/11/07 14:14:09;;;;;;;15.13;5.30;;;;;;;7.48;59.43;99170.91;4875513;29;20050;-88
2021/11/07 14:16:37;;;;;;;14.60;5.45;;;;;;;7.59;59.91;99187.88;4853857;29;20106;-86
2021/11/07 14:19:07;;;;;;;30.95;9.68;;;;;;;7.55;60.10;99186.84;4859932;29;20061;-85
2021/11/07 14:21:37;;;;;;;18.75;6.93;;;;;;;7.55;60.72;99189.56;4848226;29;20075;-85
2021/11/07 14:24:08;;;;;;;32.72;11.10;;;;;;;7.52;61.31;99185.53;4841421;29;20419;-81
2021/11/07 14:26:49;;;;;;;17.63;5.25;;;;;;;7.53;61.01;99178.97;4859133;29;20101;-86
2021/11/07 14:37:21;;;;;;;;;;;;;;;7.47;62.61;99182.06;4868981;29;20042;-80
2021/11/07 14:42:41;;;;;;;26.13;8.50;;;;;;;7.36;64.34;99167.03;4855118;29;20065;-85
2021/11/07 14:48:32;;;;;;;20.55;6.25;;;;;;;7.35;65.27;99177.09;4875267;29;20266;-82
2021/11/07 15:05:31;;;;;;;25.67;8.27;;;;;;;7.00;70.16;99165.63;4860214;29;20128;-85
2021/11/07 15:08:42;;;;;;;34.17;10.55;;;;;;;6.89;70.72;99158.72;4859522;29;20053;-79
2021/11/07 15:22:19;;;;;;;35.15;14.65;;;;;;;6.68;73.22;99146.47;4838617;29;20512;-86
2021/11/07 15:24:47;;;;;;;37.35;14.60;;;;;;;6.70;73.46;99139.66;4827380;29;20129;-87
2021/11/07 15:27:22;;;;;;;31.23;12.32;;;;;;;6.69;73.55;99140.78;4833949;29;20500;-83
2021/11/07 15:30:05;;;;;;;32.10;12.73;;;;;;;6.63;73.92;99132.97;4837604;29;20540;-76
2021/11/07 15:32:37;;;;;;;33.50;13.55;;;;;;;6.55;74.35;99134.41;4839108;29;20061;-80
2021/11/07 15:35:18;;;;;;;26.30;11.38;;;;;;;6.58;74.41;99125.69;4822555;29;20046;-77
2021/11/07 15:37:47;;;;;;;34.45;12.57;;;;;;;6.51;74.71;99114.38;4833904;29;20082;-80
2021/11/07 15:40:15;;;;;;;38.65;14.93;;;;;;;6.58;74.80;99117.53;4840712;29;20052;-78
2021/11/07 15:42:46;;;;;;;34.05;10.57;;;;;;;6.61;74.57;99113.44;4840214;29;20057;-82
2021/11/07 15:45:16;;;;;;;29.20;8.98;;;;;;;6.55;74.93;99110.78;4839496;29;20064;-82
2021/11/07 15:50:20;;;;;;;26.67;10.07;;;;;;;6.57;75.43;99108.59;4849485;29;20423;-80
2021/11/07 15:58:30;;;;;;;27.88;12.15;;;;;;;6.49;76.30;99094.84;4855782;29;20420;-77
2021/11/07 16:06:32;;;;;;;30.83;13.38;;;;;;;6.51;77.00;99089.94;4862391;29;20045;-77
2021/11/07 16:09:10;;;;;;;31.73;12.60;;;;;;;6.52;77.30;99086.13;4861235;29;20097;-78
2021/11/07 16:11:46;;;;;;;25.08;11.20;;;;;;;6.46;77.46;99085.41;4861925;29;20487;-77
2021/11/07 16:14:52;;;;;;;25.88;9.50;;;;;;;6.45;77.51;99078.31;4862220;29;20095;-75
2021/11/07 16:17:13;;;;;;;24.58;9.82;;;;;;;6.41;77.98;99063.72;4861795;29;20065;-76
2021/11/07 16:19:43;;;;;;;28.70;9.82;;;;;;;6.45;78.19;99063.94;4862133;29;20045;-76
2021/11/07 16:22:09;;;;;;;30.02;10.43;;;;;;;6.42;78.67;99075.38;4845163;29;20050;-76
2021/11/07 16:24:35;;;;;;;30.60;13.05;;;;;;;6.44;78.73;99070.50;4859566;29;20052;-78
2021/11/07 16:27:04;;;;;;;35.20;11.05;;;;;;;6.45;78.81;99063.94;4859785;29;20049;-79
2021/11/07 16:29:33;;;;;;;27.52;10.65;;;;;;;6.50;79.03;99061.97;4861136;29;20178;-80
2021/11/07 16:34:46;;;;;;;42.97;17.52;;;;;;;6.52;79.36;99057.09;4861968;29;20530;-79
2021/11/07 16:37:19;;;;;;;43.53;17.75;;;;;;;6.53;79.21;99047.81;4861884;29;20045;-80
2021/11/07 16:39:53;;;;;;;32.47;13.93;;;;;;;6.49;79.44;99046.81;4861847;29;20048;-77
2021/11/07 16:42:21;;;;;;;40.97;14.65;;;;;;;6.53;80.06;99036.16;4875698;29;20053;-84
2021/11/07 16:44:47;;;;;;;;;;;;;;;6.52;80.13;99034.53;4875534;29;20072;-79
2021/11/07 16:47:22;;;;;;;37.10;15.57;;;;;;;6.47;80.03;99026.47;4861700;29;19924;-79
2021/11/07 16:49:54;;;;;;;34.05;12.35;;;;;;;6.50;80.24;99028.59;4862305;29;20131;-78
2021/11/07 16:52:26;;;;;;;37.88;15.20;;;;;;;6.54;80.53;99019.56;4861289;29;20069;-79
2021/11/07 16:57:22;;;;;;;37.38;15.43;;;;;;;6.63;80.40;99022.44;4862142;29;20056;-78
2021/11/07 17:02:54;;;;;;;46.40;16.17;;;;;;;6.65;80.78;99016.69;4856861;29;20045;-76
2021/11/07 17:05:24;;;;;;;32.65;14.65;;;;;;;6.59;80.91;99007.84;4856434;29;20132;-77
2021/11/07 17:08:04;;;;;;;35.22;13.43;;;;;;;6.60;81.10;98998.56;4858023;29;20167;-75
2021/11/07 17:10:31;;;;;;;40.97;16.10;;;;;;;6.60;81.34;98998.56;4861924;29;20465;-75
2021/11/07 17:13:00;;;;;;;;;;;;;;;6.66;81.35;98994.69;4861245;29;20064;-76
2021/11/07 17:15:51;;;;;;;35.78;16.25;;;;;;;6.67;81.39;98993.56;4860829;29;20014;-79
2021/11/07 17:18:23;;;;;;;56.60;18.05;;;;;;;6.69;81.36;98983.22;4854034;29;20477;-76
2021/11/07 17:28:33;;;;;;;51.92;20.15;;;;;;;6.88;81.41;98974.22;4859790;29;20034;-85
2021/11/07 17:31:07;;;;;;;54.80;21.10;;;;;;;6.92;81.55;98967.94;4861985;29;20049;-92
2021/11/07 17:36:19;;;;;;;51.72;21.55;;;;;;;6.97;81.34;98959.66;4847219;29;20041;-87
2021/11/07 17:39:29;;;;;;;46.25;18.83;;;;;;;6.95;81.35;98956.44;4855077;29;20054;-89
2021/11/07 17:55:17;;;;;;;42.92;18.13;;;;;;;7.02;81.88;98934.34;4853498;29;20045;-86
2021/11/07 17:57:45;;;;;;;45.72;18.63;;;;;;;6.94;81.83;98913.28;4846592;29;20632;-88
2021/11/07 18:00:19;;;;;;;40.70;17.48;;;;;;;7.14;81.71;98937.38;4870549;29;20042;-85
2021/11/07 18:02:53;;;;;;;48.33;18.80;;;;;;;7.16;81.89;98940.59;4844757;29;20181;-87
2021/11/07 18:05:29;;;;;;;47.22;17.30;;;;;;;7.02;81.77;98891.66;4858951;29;20045;-89
2021/11/07 18:08:12;;;;;;;44.60;16.27;;;;;;;7.29;81.58;98933.56;4858367;29;20049;-90
2021/11/07 18:10:48;;;;;;;46.38;17.85;;;;;;;7.24;81.59;98920.06;4858262;29;20045;-88
2021/11/07 18:14:13;;;;;;;45.83;16.80;;;;;;;7.32;81.96;98929.44;4859694;29;20053;-89
2021/11/07 18:20:58;;;;;;;;;;;;;;;7.39;81.54;98927.94;4842451;29;20046;-89
2021/11/07 18:24:03;;;;;;;;;;;;;;;7.39;81.70;98929.84;4859323;29;19967;-89
2021/11/07 18:26:56;;;;;;;35.13;15.38;;;;;;;7.38;81.58;98914.63;4873860;29;19972;-88
2021/11/07 18:29:23;;;;;;;40.95;16.77;;;;;;;7.41;81.68;98911.31;4842757;29;20402;-88
2021/11/07 18:31:50;;;;;;;41.40;17.52;;;;;;;7.27;81.35;98892.28;4813649;29;20086;-88
2021/11/07 18:34:17;;;;;;;48.65;16.10;;;;;;;7.33;81.41;98893.78;4856965;29;20462;-87
2021/11/07 18:36:43;;;;;;;45.17;16.88;;;;;;;7.32;81.32;98889.47;4841691;29;20077;-85
2021/11/07 18:39:14;;;;;;;47.83;16.13;;;;;;;7.26;81.18;98868.91;4841898;29;20567;-85
2021/11/07 18:41:42;;;;;;;41.28;17.70;;;;;;;7.56;81.07;98908.31;4864480;29;20052;-85
2021/11/07 18:44:08;;;;;;;43.65;16.73;;;;;;;7.54;81.00;98902.34;4826861;29;20525;-85
2021/11/07 18:46:35;;;;;;;43.53;15.77;;;;;;;7.58;80.92;98902.53;4857942;29;20465;-85
2021/11/07 18:49:02;;;;;;;36.40;15.20;;;;;;;7.52;80.86;98889.06;4858034;29;20515;-84
2021/11/07 18:51:31;;;;;;;42.15;17.27;;;;;;;7.52;80.87;98888.25;4842578;29;20045;-84
2021/11/07 18:54:02;;;;;;;40.92;18.33;;;;;;;7.65;80.67;98903.78;4850084;29;20522;-85
2021/11/07 18:56:29;;;;;;;47.00;17.42;;;;;;;7.60;80.88;98895.69;4857564;29;20056;-85
2021/11/07 18:58:57;;;;;;;45.55;18.52;;;;;;;7.66;80.79;98904.56;4829716;29;20053;-86
2021/11/07 19:01:23;;;;;;;40.28;17.90;;;;;;;7.50;80.84;98872.22;4856007;29;20053;-85
2021/11/07 19:03:50;;;;;;;38.28;15.88;;;;;;;7.64;80.80;98895.91;4846725;29;20029;-84
2021/11/07 19:06:20;;;;;;;48.92;17.95;;;;;;;7.53;80.76;98870.81;4851505;29;20042;-86
2021/11/07 19:08:48;;;;;;;37.95;16.30;;;;;;;7.70;80.55;98891.97;4856696;29;20037;-85
2021/11/07 19:11:19;;;;;;;35.88;15.70;;;;;;;7.71;80.45;98893.56;4836235;29;20077;-84
2021/11/07 19:13:50;;;;;;;40.45;15.18;;;;;;;7.70;80.42;98890.03;4849421;29;20524;-88
2021/11/07 19:16:17;;;;;;;32.60;14.43;;;;;;;7.67;80.39;98884.41;4856134;29;20128;-88
2021/11/07 19:18:44;;;;;;;37.63;14.52;;;;;;;7.60;80.51;98867.69;4841836;29;20099;-89
2021/11/07 19:21:11;;;;;;;36.72;14.18;;;;;;;7.55;80.20;98860.47;4850184;29;20496;-86
2021/11/07 19:23:39;;;;;;;31.77;13.35;;;;;;;7.66;80.32;98875.44;4852063;29;20057;-88
2021/11/07 19:26:06;;;;;;;29.20;12.63;;;;;;;7.66;80.14;98875.44;4843755;29;20136;-86
2021/11/07 19:28:33;;;;;;;34.45;14.93;;;;;;;7.60;80.07;98857.63;4860238;29;20464;-87
2021/11/07 19:31:00;;;;;;;37.97;14.70;;;;;;;7.70;80.24;98868.28;4841895;29;20038;-88
2021/11/07 19:33:26;;;;;;;31.00;13.18;;;;;;;7.73;80.00;98867.66;4851676;29;20045;-87
2021/11/07 19:35:52;;;;;;;28.60;12.10;;;;;;;7.63;80.05;98848.84;4813874;29;20053;-89
2021/11/07 19:38:20;;;;;;;33.45;13.40;;;;;;;7.75;79.99;98860.03;4841551;29;20112;-88
2021/11/07 19:40:49;;;;;;;28.98;12.60;;;;;;;7.53;79.98;98817.22;4821227;29;20046;-88
2021/11/07 19:43:15;;;;;;;34.80;14.10;;;;;;;7.52;80.06;98825.72;4873405;29;20778;-88
2021/11/07 19:46:11;;;;;;;28.40;12.65;;;;;;;7.42;80.21;98817.78;4858198;29;20129;-90
2021/11/07 19:51:48;;;;;;;31.42;12.55;;;;;;;7.27;79.88;98786.25;4858095;29;20178;-88
2021/11/07 19:59:00;;;;;;;33.97;13.00;;;;;;;7.79;79.71;98870.28;4857167;29;20045;-87
2021/11/07 20:10:47;;;;;;;30.25;12.27;;;;;;;7.65;78.91;98834.94;4860908;29;20483;-87
2021/11/07 20:13:39;;;;;;;30.30;12.50;;;;;;;7.90;79.00;98868.94;4869009;29;20049;-87
2021/11/07 20:16:05;;;;;;;23.15;11.38;;;;;;;7.60;78.70;98816.00;4858948;29;20048;-86
2021/11/07 20:19:31;;;;;;;36.53;13.05;;;;;;;7.87;78.67;98864.13;4861560;29;20041;-88
2021/11/07 20:21:58;;;;;;;22.83;10.35;;;;;;;7.47;78.43;98801.31;4844498;29;20034;-89
2021/11/07 20:24:50;;;;;;;30.27;13.70;;;;;;;7.90;78.53;98863.50;4839858;29;20117;-88
2021/11/07 20:27:24;;;;;;;32.10;14.75;;;;;;;7.77;78.29;98848.81;4851004;29;20041;-87
2021/11/07 20:29:53;;;;;;;31.15;14.70;;;;;;;7.89;78.02;98862.72;4861329;29;20144;-87
2021/11/07 20:32:22;;;;;;;46.40;16.13;;;;;;;7.83;77.87;98844.88;4861316;29;20041;-89
2021/11/07 20:34:57;;;;;;;29.00;13.65;;;;;;;7.91;78.11;98846.06;4849647;29;20045;-89
2021/11/07 20:37:27;;;;;;;37.95;14.23;;;;;;;7.93;78.16;98852.81;4858917;29;20042;-88
2021/11/07 20:40:03;;;;;;;25.45;12.35;;;;;;;7.89;77.68;98842.84;4845939;29;20046;-88
2021/11/07 20:42:34;;;;;;;22.73;10.67;;;;;;;7.72;77.80;98822.53;4844172;29;20255;-87
2021/11/07 20:52:38;;;;;;;24.65;10.60;;;;;;;7.77;77.28;98832.50;4840086;29;20424;-88
2021/11/07 20:55:22;;;;;;;28.27;13.48;;;;;;;7.87;77.87;98832.25;4845384;29;20436;-87
2021/11/07 20:57:57;;;;;;;24.92;12.15;;;;;;;7.88;77.68;98841.22;4843683;29;20076;-88
2021/11/07 21:02:56;;;;;;;33.75;12.55;;;;;;;7.88;77.63;98833.06;4844450;29;20055;-88
2021/11/07 21:05:26;;;;;;;25.17;11.40;;;;;;;7.86;77.12;98832.59;4867225;29;20066;-87
2021/11/07 21:08:00;;;;;;;30.42;13.55;;;;;;;7.86;77.15;98822.50;4843679;29;20046;-87
2021/11/07 21:10:52;;;;;;;28.27;12.15;;;;;;;7.85;77.02;98829.06;4866278;29;20404;-85
2021/11/07 21:13:16;;;;;;;24.80;10.15;;;;;;;7.82;76.40;98820.72;4852018;29;20120;-87
2021/11/07 21:15:54;;;;;;;23.17;11.55;;;;;;;7.77;76.47;98808.81;4829404;29;20045;-87
2021/11/07 21:23:49;;;;;;;35.33;12.30;;;;;;;7.73;75.79;98802.38;4860928;29;20053;-88
2021/11/07 21:26:23;;;;;;;18.25;9.38;;;;;;;7.85;75.15;98830.97;4830310;29;20041;-88
2021/11/07 21:28:54;;;;;;;21.95;10.63;;;;;;;7.80;74.48;98809.31;4859924;29;20535;-87
2021/11/07 21:31:25;;;;;;;22.30;10.48;;;;;;;7.89;74.09;98802.03;4857415;29;20046;-87
2021/11/07 21:34:09;;;;;;;25.52;10.80;;;;;;;7.79;74.25;98786.75;4834800;29;20499;-87
2021/11/07 21:39:34;;;;;;;19.48;9.88;;;;;;;7.70;74.40;98764.91;4857570;29;20041;-87
2021/11/07 21:44:33;;;;;;;19.20;10.90;;;;;;;7.91;74.57;98791.63;4841302;29;20060;-86
2021/11/07 21:47:03;;;;;;;26.48;10.77;;;;;;;7.68;74.59;98750.00;4851620;29;20049;-87
2021/11/07 21:49:30;;;;;;;28.23;10.73;;;;;;;7.74;74.48;98765.88;4860947;29;20040;-85
2021/11/07 21:51:57;;;;;;;19.42;10.48;;;;;;;7.88;74.40;98773.19;4860474;29;20512;-87
2021/11/07 21:54:23;;;;;;;19.77;10.55;;;;;;;7.87;74.21;98763.44;4859203;29;20049;-88
2021/11/07 21:56:51;;;;;;;19.40;9.73;;;;;;;7.84;74.21;98778.44;4842350;29;20418;-86
2021/11/07 21:59:17;;;;;;;25.23;9.80;;;;;;;7.89;74.29;98780.25;4859193;29;20067;-86
2021/11/07 22:01:44;;;;;;;27.35;10.27;;;;;;;7.89;74.27;98775.63;4860417;29;20052;-86
2021/11/07 22:04:10;;;;;;;24.95;9.38;;;;;;;7.69;73.84;98746.19;4859083;29;20045;-86
2021/11/07 22:06:37;;;;;;;16.40;7.57;;;;;;;7.81;73.83;98762.75;4858652;29;20050;-86
2021/11/07 22:09:04;;;;;;;21.75;9.77;;;;;;;7.81;73.49;98775.53;4840615;29;20298;-86
2021/11/07 22:11:35;;;;;;;;;;;;;;;7.86;73.68;98776.25;4877408;29;20419;-87
2021/11/07 22:14:05;;;;;;;23.98;10.13;;;;;;;7.85;73.46;98780.09;4860521;29;19985;-87
2021/11/07 22:19:17;;;;;;;18.95;9.45;;;;;;;7.73;73.30;98763.50;4860533;29;20516;-87
2021/11/07 22:21:52;;;;;;;23.35;9.43;;;;;;;7.81;73.34;98784.50;4843711;29;20089;-85
2021/11/07 22:24:28;;;;;;;22.00;9.25;;;;;;;7.81;73.46;98767.38;4848913;29;20428;-86
2021/11/07 22:26:57;;;;;;;22.70;9.43;;;;;;;7.86;73.54;98778.16;4849437;29;20045;-86
2021/11/07 22:29:32;;;;;;;22.23;9.85;;;;;;;7.85;73.38;98777.34;4839842;29;20041;-87
2021/11/07 22:32:07;;;;;;;28.08;10.30;;;;;;;7.80;73.22;98776.66;4856707;29;20069;-87
2021/11/07 22:34:40;;;;;;;24.42;9.32;;;;;;;7.80;73.31;98771.22;4842941;29;20051;-87